createdAt,value
2023-02-17T00:00:31.580Z,11.38
2023-02-17T00:03:34.517Z,11.65
2023-02-17T00:06:37.514Z,11.25
2023-02-17T00:09:40.496Z,12.10
2023-02-17T00:12:43.335Z,10.63
2023-02-17T00:15:47.831Z,11.25
2023-02-17T00:18:54.741Z,10.88
2023-02-17T00:21:59.469Z,11.82
2023-02-17T00:25:02.352Z,11.68
2023-02-17T00:28:05.587Z,11.05
2023-02-17T00:31:12.274Z,11.20
2023-02-17T00:34:15.596Z,10.35
2023-02-17T00:37:18.470Z,10.82
2023-02-17T00:40:21.295Z,10.98
2023-02-17T00:43:24.248Z,10.13
2023-02-17T00:46:30.707Z,10.40
2023-02-17T00:49:33.580Z,10.32
2023-02-17T00:52:36.876Z,10.30
2023-02-17T00:55:39.707Z,9.90
2023-02-17T00:58:42.898Z,9.98
2023-02-17T01:01:47.355Z,9.57
2023-02-17T01:04:50.840Z,9.57
2023-02-17T01:07:53.705Z,9.02
2023-02-17T01:10:56.571Z,9.25
2023-02-17T01:14:02.031Z,9.25
2023-02-17T01:17:06.382Z,9.52
2023-02-17T01:20:10.602Z,10.10
2023-02-17T01:23:15.387Z,8.80
2023-02-17T01:26:20.111Z,9.18
2023-02-17T01:29:23.013Z,9.32
2023-02-17T01:32:27.191Z,9.00
2023-02-17T01:35:30.831Z,9.43
2023-02-17T01:38:33.814Z,9.25
2023-02-17T01:41:37.876Z,8.75
2023-02-17T01:45:14.012Z,8.70
2023-02-17T01:48:21.532Z,9.20
2023-02-17T01:51:29.824Z,9.02
2023-02-17T01:54:37.424Z,8.57
2023-02-17T01:57:42.855Z,8.43
2023-02-17T02:00:46.235Z,8.55
2023-02-17T02:03:53.540Z,8.77
2023-02-17T02:06:56.572Z,8.40
2023-02-17T02:10:00.345Z,8.18
2023-02-17T02:13:03.340Z,8.63
2023-02-17T02:16:15.315Z,8.88
2023-02-17T02:19:38.359Z,9.25
2023-02-17T02:23:08.400Z,7.95
2023-02-17T02:26:40.949Z,7.38
2023-02-17T02:29:59.799Z,8.82
2023-02-17T02:33:13.303Z,8.48
2023-02-17T02:36:20.950Z,8.52
2023-02-17T02:39:30.242Z,7.82
2023-02-17T02:42:34.047Z,8.35
2023-02-17T02:45:37.663Z,8.40
2023-02-17T02:48:42.298Z,8.20
2023-02-17T02:51:55.177Z,8.95
2023-02-17T02:55:04.679Z,7.90
2023-02-17T02:58:17.927Z,8.18
2023-02-17T03:01:31.228Z,8.40
2023-02-17T03:04:39.724Z,7.82
2023-02-17T03:07:50.384Z,8.52
2023-02-17T03:10:55.425Z,7.55
2023-02-17T03:14:01.835Z,7.75
2023-02-17T03:17:05.417Z,7.20
2023-02-17T03:20:11.209Z,7.78
2023-02-17T03:23:14.243Z,7.25
2023-02-17T03:26:17.173Z,7.28
2023-02-17T03:29:22.003Z,7.97
2023-02-17T03:32:25.033Z,7.32
2023-02-17T03:35:29.382Z,7.63
2023-02-17T03:38:32.236Z,7.45
2023-02-17T03:41:35.091Z,8.20
2023-02-17T03:44:38.074Z,7.40
2023-02-17T03:47:40.940Z,7.03
2023-02-17T03:50:45.242Z,7.55
2023-02-17T03:53:48.894Z,7.22
2023-02-17T03:56:51.797Z,7.22
2023-02-17T03:59:54.639Z,6.97
2023-02-17T04:02:57.998Z,6.85
2023-02-17T04:06:03.162Z,6.75
2023-02-17T04:09:06.166Z,7.38
2023-02-17T04:12:09.071Z,6.95
2023-02-17T04:15:12.424Z,6.50
2023-02-17T04:18:15.615Z,6.47
2023-02-17T04:21:19.902Z,7.15
2023-02-17T04:24:22.715Z,7.05
2023-02-17T04:27:25.528Z,6.70
2023-02-17T04:30:28.471Z,6.15
2023-02-17T04:33:31.275Z,6.85
2023-02-17T04:36:35.693Z,6.90
2023-02-17T04:39:38.606Z,6.85
2023-02-17T04:42:41.562Z,6.53
2023-02-17T04:45:44.414Z,6.53
2023-02-17T04:48:47.331Z,6.28
2023-02-17T04:51:51.467Z,6.15
2023-02-17T04:54:54.312Z,5.93
2023-02-17T04:57:58.220Z,6.20
2023-02-17T05:01:01.652Z,6.22
2023-02-17T05:04:04.641Z,5.80
2023-02-17T05:07:08.850Z,6.28
2023-02-17T05:10:12.448Z,6.22
2023-02-17T05:13:15.367Z,6.25
2023-02-17T05:16:18.311Z,6.63
2023-02-17T05:19:21.382Z,5.82
2023-02-17T05:22:25.961Z,6.50
2023-02-17T05:25:28.808Z,5.93
2023-02-17T05:28:31.697Z,6.00
2023-02-17T05:31:34.668Z,5.55
2023-02-17T05:34:38.077Z,5.72
2023-02-17T05:37:42.499Z,4.93
2023-02-17T05:40:45.365Z,5.50
2023-02-17T05:43:48.776Z,6.28
2023-02-17T05:46:51.812Z,5.28
2023-02-17T05:49:54.744Z,5.57
2023-02-17T05:52:58.926Z,5.95
2023-02-17T05:56:01.803Z,5.85
2023-02-17T05:59:04.794Z,5.25
2023-02-17T06:02:07.609Z,5.80
2023-02-17T06:05:11.034Z,5.72
2023-02-17T06:08:15.341Z,5.63
2023-02-17T06:11:18.263Z,5.32
2023-02-17T06:14:21.144Z,4.93
2023-02-17T06:17:24.036Z,5.38
2023-02-17T06:20:27.083Z,5.32
2023-02-17T06:23:31.515Z,5.10
2023-02-17T06:26:34.420Z,5.30
2023-02-17T06:29:37.262Z,5.65
2023-02-17T06:32:40.162Z,5.07
2023-02-17T06:35:44.531Z,5.10
2023-02-17T06:38:48.857Z,5.15
2023-02-17T06:41:51.923Z,4.93
2023-02-17T06:44:54.841Z,4.65
2023-02-17T06:47:57.669Z,5.22
2023-02-17T06:51:01.236Z,4.78
2023-02-17T06:54:05.763Z,5.00
2023-02-17T06:57:08.713Z,5.25
2023-02-17T07:00:12.371Z,5.20
2023-02-17T07:03:15.356Z,4.60
2023-02-17T07:06:18.179Z,4.95
2023-02-17T07:09:22.426Z,4.88
2023-02-17T07:12:25.287Z,4.72
2023-02-17T07:15:28.261Z,4.88
2023-02-17T07:18:31.526Z,4.95
2023-02-17T07:21:34.412Z,5.00
2023-02-17T07:24:38.736Z,5.00
2023-02-17T07:27:41.875Z,5.07
2023-02-17T07:30:45.363Z,4.65
2023-02-17T07:33:50.126Z,4.55
2023-02-17T07:36:53.029Z,5.00
2023-02-17T07:39:58.086Z,4.90
2023-02-17T07:43:00.947Z,4.40
2023-02-17T07:46:04.951Z,4.53
2023-02-17T07:49:08.200Z,3.90
2023-02-17T07:52:11.230Z,4.35
2023-02-17T07:55:15.511Z,4.78
2023-02-17T07:58:18.602Z,4.75
2023-02-17T08:01:23.652Z,4.50
2023-02-17T08:04:26.545Z,4.13
2023-02-17T08:07:29.921Z,4.28
2023-02-17T08:10:51.535Z,4.07
2023-02-17T08:13:54.515Z,4.50
2023-02-17T08:16:58.061Z,4.22
2023-02-17T08:20:08.064Z,4.50
2023-02-17T08:23:11.817Z,4.68
2023-02-17T08:26:16.053Z,4.40
2023-02-17T08:29:20.276Z,4.38
2023-02-17T08:32:23.197Z,4.15
2023-02-17T08:35:26.141Z,4.78
2023-02-17T08:38:29.758Z,8.52
2023-02-17T08:41:37.554Z,7.93
2023-02-17T08:44:40.614Z,8.25
2023-02-17T08:47:44.099Z,9.00
2023-02-17T08:50:48.762Z,7.75
2023-02-17T08:53:52.580Z,7.22
2023-02-17T08:56:58.668Z,6.50
2023-02-17T09:00:01.689Z,6.07
2023-02-17T09:03:05.051Z,5.22
2023-02-17T09:06:09.472Z,4.63
2023-02-17T09:09:15.262Z,4.53
2023-02-17T09:12:19.576Z,4.10
2023-02-17T09:15:22.476Z,4.18
2023-02-17T09:18:26.075Z,3.65
2023-02-17T09:21:29.170Z,4.00
2023-02-17T09:24:34.163Z,3.72
2023-02-17T09:27:38.617Z,3.90
2023-02-17T09:30:41.941Z,3.55
2023-02-17T09:33:45.320Z,3.85
2023-02-17T09:36:50.130Z,3.75
2023-02-17T09:39:53.171Z,3.63
2023-02-17T09:42:57.494Z,3.72
2023-02-17T09:46:08.444Z,3.80
2023-02-17T09:49:16.678Z,3.67
2023-02-17T09:52:27.172Z,3.70
2023-02-17T09:55:36.259Z,3.92
2023-02-17T09:58:44.735Z,3.70
2023-02-17T10:01:50.259Z,3.80
2023-02-17T10:04:55.634Z,3.33
2023-02-17T10:08:06.459Z,4.40
2023-02-17T10:11:17.114Z,4.80
2023-02-17T10:14:26.851Z,3.58
2023-02-17T10:17:36.034Z,4.30
2023-02-17T10:20:43.210Z,3.92
2023-02-17T10:23:47.603Z,4.25
2023-02-17T10:27:02.936Z,4.28
2023-02-17T10:30:21.012Z,3.95
2023-02-17T10:33:30.579Z,3.80
2023-02-17T10:36:45.633Z,3.88
2023-02-17T10:39:50.765Z,4.05
2023-02-17T10:42:57.253Z,4.40
2023-02-17T10:46:04.051Z,4.47
2023-02-17T10:49:07.362Z,4.43
2023-02-17T10:52:14.495Z,4.70
2023-02-17T10:55:24.686Z,4.55
2023-02-17T10:58:32.999Z,4.53
2023-02-17T11:01:37.628Z,4.40
2023-02-17T11:04:42.494Z,4.72
2023-02-17T11:07:46.140Z,4.78
2023-02-17T11:11:01.404Z,4.22
2023-02-17T11:14:15.343Z,4.65
2023-02-17T11:17:23.827Z,4.43
2023-02-17T11:20:36.750Z,4.05
2023-02-17T11:23:49.943Z,4.57
2023-02-17T11:26:58.536Z,4.50
2023-02-17T11:30:18.722Z,4.38
2023-02-17T11:33:29.775Z,4.50
2023-02-17T11:36:33.266Z,4.30
2023-02-17T11:39:39.524Z,4.53
2023-02-17T11:42:42.365Z,4.95
2023-02-17T11:45:54.617Z,4.45
2023-02-17T11:49:31.146Z,4.28
2023-02-17T11:52:53.651Z,5.05
2023-02-17T11:56:07.739Z,4.28
2023-02-17T11:59:37.001Z,4.35
2023-02-17T12:02:54.676Z,4.30
2023-02-17T12:06:09.214Z,4.05
2023-02-17T12:09:20.864Z,4.85
2023-02-17T12:12:33.112Z,4.20
2023-02-17T12:15:50.582Z,4.35
2023-02-17T12:19:05.741Z,4.35
2023-02-17T12:22:17.583Z,4.20
2023-02-17T12:25:27.082Z,4.10
2023-02-17T12:28:42.643Z,4.40
2023-02-17T12:32:07.528Z,4.43
2023-02-17T12:35:20.073Z,4.53
2023-02-17T12:38:28.468Z,4.72
2023-02-17T12:41:36.517Z,4.50
2023-02-17T12:44:43.506Z,5.20
2023-02-17T12:47:53.342Z,5.82
2023-02-17T12:51:03.951Z,5.25
2023-02-17T12:54:13.688Z,5.75
2023-02-17T12:57:23.470Z,4.93
2023-02-17T13:00:33.557Z,4.60
2023-02-17T13:03:37.721Z,5.18
2023-02-17T13:06:45.764Z,4.70
2023-02-17T13:09:51.256Z,5.35
2023-02-17T13:13:02.438Z,5.60
2023-02-17T13:16:08.529Z,4.30
2023-02-17T13:19:11.649Z,5.25
2023-02-17T13:22:23.678Z,4.80
2023-02-17T13:25:32.372Z,5.18
2023-02-17T13:28:38.599Z,6.78
2023-02-17T13:31:48.029Z,8.68
2023-02-17T13:35:01.554Z,9.80
2023-02-17T13:38:04.849Z,12.05
2023-02-17T13:41:08.352Z,13.18
2023-02-17T13:44:29.392Z,17.70
2023-02-17T13:47:38.002Z,18.73
2023-02-17T13:50:46.787Z,22.15
2023-02-17T13:53:51.482Z,28.23
2023-02-17T13:56:56.216Z,31.10
2023-02-17T14:00:11.945Z,36.92
2023-02-17T14:03:21.544Z,45.72
2023-02-17T14:06:28.935Z,57.67
2023-02-17T14:09:34.236Z,70.00
2023-02-17T14:12:37.120Z,76.38
2023-02-17T14:15:52.319Z,79.97
2023-02-17T14:19:03.379Z,83.60
2023-02-17T14:22:07.574Z,88.82
2023-02-17T14:25:15.232Z,92.07
2023-02-17T14:28:20.465Z,97.25
2023-02-17T14:31:25.506Z,101.65
2023-02-17T14:34:30.434Z,105.00
2023-02-17T14:37:36.773Z,111.68
2023-02-17T14:40:40.298Z,113.95
2023-02-17T14:43:43.240Z,118.65
2023-02-17T14:46:47.674Z,122.78
2023-02-17T14:49:50.613Z,129.10
2023-02-17T14:52:53.581Z,131.68
2023-02-17T14:56:01.532Z,139.13
2023-02-17T14:59:04.347Z,140.50
2023-02-17T15:02:15.403Z,143.45
2023-02-17T15:05:18.534Z,148.43
2023-02-17T15:08:26.318Z,151.95
2023-02-17T15:11:34.284Z,152.93
2023-02-17T15:14:37.166Z,164.25
2023-02-17T15:17:41.412Z,168.68
2023-02-17T15:20:46.598Z,172.52
2023-02-17T15:23:49.568Z,176.23
2023-02-17T15:26:52.620Z,177.35
2023-02-17T15:29:55.469Z,181.10
2023-02-17T15:32:59.736Z,190.98
2023-02-17T15:36:02.686Z,191.60
2023-02-17T15:39:05.580Z,207.23
2023-02-17T15:42:14.442Z,204.85
2023-02-17T15:45:20.417Z,207.07
2023-02-17T15:48:26.269Z,216.98
2023-02-17T15:51:29.344Z,218.35
2023-02-17T15:54:32.204Z,224.10
2023-02-17T15:57:35.835Z,225.75
2023-02-17T16:00:38.729Z,233.35
2023-02-17T16:03:42.960Z,236.95
2023-02-17T16:06:46.182Z,246.70
2023-02-17T16:09:49.084Z,244.55
2023-02-17T16:12:53.318Z,253.40
2023-02-17T16:15:59.705Z,259.58
2023-02-17T16:19:04.086Z,264.25
2023-02-17T16:22:06.956Z,266.63
2023-02-17T16:25:10.213Z,265.73
2023-02-17T16:28:16.840Z,273.98
2023-02-17T16:31:19.929Z,278.23
2023-02-17T16:34:25.909Z,278.00
2023-02-17T16:37:29.913Z,285.80
2023-02-17T16:40:35.807Z,287.50
2023-02-17T16:43:38.663Z,293.15
2023-02-17T16:46:47.369Z,294.17
2023-02-17T16:49:52.047Z,289.17
2023-02-17T16:52:56.844Z,287.15
2023-02-17T16:56:00.083Z,285.90
2023-02-17T16:59:03.144Z,289.27
2023-02-17T17:02:06.070Z,289.58
2023-02-17T17:05:12.628Z,289.60
2023-02-17T17:08:18.003Z,290.35
2023-02-17T17:11:24.004Z,295.70
2023-02-17T17:14:27.076Z,296.27
2023-02-17T17:17:30.786Z,293.90
2023-02-17T17:20:37.296Z,301.67
2023-02-17T17:23:40.630Z,304.52
2023-02-17T17:26:45.859Z,306.77
2023-02-17T17:29:48.700Z,307.60
2023-02-17T17:32:51.788Z,317.38
2023-02-17T17:35:56.095Z,321.40
2023-02-17T17:39:00.283Z,329.75
2023-02-17T17:42:03.217Z,334.75
2023-02-17T17:45:06.489Z,336.48
2023-02-17T17:48:13.832Z,341.33
2023-02-17T17:51:20.784Z,337.90
2023-02-17T17:54:23.651Z,345.58
2023-02-17T17:57:26.455Z,348.80
2023-02-17T18:00:29.545Z,347.15
2023-02-17T18:03:32.348Z,356.08
2023-02-17T18:06:40.637Z,354.60
2023-02-17T18:09:43.953Z,358.65
2023-02-17T18:12:48.708Z,362.25
2023-02-17T18:15:52.314Z,365.27
2023-02-17T18:18:57.226Z,365.80
2023-02-17T18:22:01.438Z,370.10
2023-02-17T18:25:04.397Z,366.08
2023-02-17T18:28:07.263Z,368.00
2023-02-17T18:31:11.548Z,372.48
2023-02-17T18:34:14.771Z,374.48
2023-02-17T18:37:19.042Z,373.48
2023-02-17T18:40:23.042Z,371.15
2023-02-17T18:43:26.320Z,369.58
2023-02-17T18:46:30.022Z,379.10
2023-02-17T18:49:32.862Z,381.50
2023-02-17T18:52:37.603Z,380.88
2023-02-17T18:55:40.456Z,386.45
2023-02-17T18:58:43.532Z,388.63
2023-02-17T19:01:46.532Z,390.77
2023-02-17T19:04:49.419Z,388.02
2023-02-17T19:07:53.701Z,395.83
2023-02-17T19:10:56.492Z,392.70
2023-02-17T19:14:01.407Z,398.90
2023-02-17T19:17:04.257Z,400.73
2023-02-17T19:20:08.484Z,407.83
2023-02-17T19:23:12.682Z,406.55
2023-02-17T19:26:17.213Z,399.75
2023-02-17T19:29:21.923Z,412.88
2023-02-17T19:32:25.744Z,410.75
2023-02-17T19:35:28.592Z,414.25
2023-02-17T19:38:32.859Z,418.27
2023-02-17T19:41:36.092Z,417.65
2023-02-17T19:44:39.083Z,420.50
2023-02-17T19:47:41.894Z,423.10
2023-02-17T19:50:44.732Z,421.17
2023-02-17T19:53:49.224Z,418.38
2023-02-17T19:56:52.765Z,420.58
2023-02-17T19:59:55.686Z,420.25
2023-02-17T20:02:58.515Z,426.83
2023-02-17T20:06:05.900Z,429.58
2023-02-17T20:09:12.402Z,430.42
2023-02-17T20:12:15.335Z,436.92
2023-02-17T20:15:18.407Z,432.63
2023-02-17T20:18:21.240Z,439.65
2023-02-17T20:21:25.979Z,444.75
2023-02-17T20:24:30.214Z,442.92
2023-02-17T20:27:33.031Z,441.90
2023-02-17T20:30:35.945Z,445.60
2023-02-17T20:33:39.079Z,443.55
2023-02-17T20:36:41.927Z,446.95
2023-02-17T20:39:46.334Z,453.88
2023-02-17T20:42:49.254Z,452.25
2023-02-17T20:45:53.236Z,452.80
2023-02-17T20:48:56.907Z,450.13
2023-02-17T20:51:59.726Z,449.88
2023-02-17T20:55:03.940Z,456.33
2023-02-17T20:58:06.971Z,463.30
2023-02-17T21:01:10.046Z,461.88
2023-02-17T21:04:14.103Z,463.27
2023-02-17T21:07:17.215Z,449.67
2023-02-17T21:10:23.897Z,441.40
2023-02-17T21:13:28.983Z,438.13
2023-02-17T21:16:32.744Z,429.23
2023-02-17T21:19:35.723Z,428.48
2023-02-17T21:22:38.648Z,429.85
2023-02-17T21:25:46.200Z,423.45
2023-02-17T21:28:49.153Z,424.08
2023-02-17T21:31:52.566Z,419.15
2023-02-17T21:34:55.995Z,415.15
2023-02-17T21:37:58.891Z,416.70
2023-02-17T21:41:07.432Z,417.27
2023-02-17T21:44:29.823Z,412.23
2023-02-17T21:47:34.264Z,408.63
2023-02-17T21:50:37.305Z,413.23
2023-02-17T21:53:40.296Z,410.73
2023-02-17T21:56:44.595Z,409.35
2023-02-17T21:59:47.515Z,405.42
2023-02-17T22:02:50.437Z,408.30
2023-02-17T22:05:53.860Z,410.88
2023-02-17T22:08:58.257Z,408.17
2023-02-17T22:12:02.480Z,408.00
2023-02-17T22:15:06.231Z,402.83
2023-02-17T22:18:09.263Z,408.95
2023-02-17T22:21:14.907Z,406.92
2023-02-17T22:24:20.609Z,407.10
2023-02-17T22:27:24.980Z,410.92
2023-02-17T22:30:28.491Z,418.65
2023-02-17T22:33:31.926Z,413.88
2023-02-17T22:36:36.254Z,416.02
2023-02-17T22:39:39.082Z,413.65
2023-02-17T22:42:43.331Z,409.45
2023-02-17T22:45:46.181Z,411.02
2023-02-17T22:48:50.889Z,412.08
2023-02-17T22:51:53.722Z,408.30
2023-02-17T22:54:56.794Z,407.77
2023-02-17T22:58:01.121Z,410.90
2023-02-17T23:01:06.319Z,409.00
2023-02-17T23:04:09.540Z,413.75
2023-02-17T23:07:12.408Z,421.63
2023-02-17T23:10:15.280Z,413.67
2023-02-17T23:13:19.975Z,412.23
2023-02-17T23:16:22.912Z,407.00
2023-02-17T23:19:26.379Z,409.63
2023-02-17T23:22:29.363Z,405.90
2023-02-17T23:25:32.311Z,398.00
2023-02-17T23:28:36.549Z,403.30
2023-02-17T23:31:39.561Z,396.17
2023-02-17T23:34:42.488Z,393.45
2023-02-17T23:37:45.453Z,391.60
2023-02-17T23:40:50.625Z,391.13
2023-02-17T23:43:55.091Z,391.25
2023-02-17T23:46:57.918Z,388.67
2023-02-17T23:50:00.787Z,390.95
2023-02-17T23:53:03.602Z,391.70
2023-02-17T23:56:09.128Z,389.25
2023-02-17T23:59:13.627Z,387.25
